sensor_id;sensor_type;location;lat;lon;timestamp;temperature;humidity
6146;DHT22;3104;50.348;7.620;2023-03-11T00:00:47;2.30;99.90
6146;DHT22;3104;50.348;7.620;2023-03-11T00:03:15;2.40;99.90
6146;DHT22;3104;50.348;7.620;2023-03-11T00:05:43;2.30;99.90
6146;DHT22;3104;50.348;7.620;2023-03-11T00:08:12;2.20;99.90
6146;DHT22;3104;50.348;7.620;2023-03-11T00:10:40;2.20;99.90
6146;DHT22;3104;50.348;7.620;2023-03-11T00:13:07;2.20;99.90
6146;DHT22;3104;50.348;7.620;2023-03-11T00:15:34;2.30;99.90
6146;DHT22;3104;50.348;7.620;2023-03-11T00:18:00;2.30;99.90
6146;DHT22;3104;50.348;7.620;2023-03-11T00:20:35;2.30;99.90
6146;DHT22;3104;50.348;7.620;2023-03-11T00:23:01;2.20;99.90
6146;DHT22;3104;50.348;7.620;2023-03-11T00:25:29;2.20;99.90
6146;DHT22;3104;50.348;7.620;2023-03-11T00:27:56;2.10;99.90
6146;DHT22;3104;50.348;7.620;2023-03-11T00:30:22;2.20;99.90
6146;DHT22;3104;50.348;7.620;2023-03-11T00:32:50;2.30;99.90
6146;DHT22;3104;50.348;7.620;2023-03-11T00:35:19;2.30;99.90
6146;DHT22;3104;50.348;7.620;2023-03-11T00:37:46;2.30;99.90
6146;DHT22;3104;50.348;7.620;2023-03-11T00:40:13;2.30;99.90
6146;DHT22;3104;50.348;7.620;2023-03-11T00:42:39;2.30;99.90
6146;DHT22;3104;50.348;7.620;2023-03-11T00:45:06;2.20;99.90
6146;DHT22;3104;50.348;7.620;2023-03-11T00:47:31;2.20;99.90
6146;DHT22;3104;50.348;7.620;2023-03-11T00:49:57;2.30;99.90
6146;DHT22;3104;50.348;7.620;2023-03-11T00:52:22;2.30;99.90
6146;DHT22;3104;50.348;7.620;2023-03-11T00:54:48;2.30;99.90
6146;DHT22;3104;50.348;7.620;2023-03-11T00:57:13;2.30;99.90
6146;DHT22;3104;50.348;7.620;2023-03-11T00:59:39;2.50;99.90
6146;DHT22;3104;50.348;7.620;2023-03-11T01:02:05;2.40;99.90
6146;DHT22;3104;50.348;7.620;2023-03-11T01:04:30;2.30;99.90
6146;DHT22;3104;50.348;7.620;2023-03-11T01:06:56;2.30;99.90
6146;DHT22;3104;50.348;7.620;2023-03-11T01:09:21;2.30;99.90
6146;DHT22;3104;50.348;7.620;2023-03-11T01:11:47;2.20;99.90
6146;DHT22;3104;50.348;7.620;2023-03-11T01:14:12;2.20;99.90
6146;DHT22;3104;50.348;7.620;2023-03-11T01:16:38;2.20;99.90
6146;DHT22;3104;50.348;7.620;2023-03-11T01:19:03;2.30;99.90
6146;DHT22;3104;50.348;7.620;2023-03-11T01:21:29;2.20;99.90
6146;DHT22;3104;50.348;7.620;2023-03-11T01:23:55;2.30;99.90
6146;DHT22;3104;50.348;7.620;2023-03-11T01:26:20;2.30;99.90
6146;DHT22;3104;50.348;7.620;2023-03-11T01:28:46;2.30;99.90
6146;DHT22;3104;50.348;7.620;2023-03-11T01:31:11;2.30;99.90
6146;DHT22;3104;50.348;7.620;2023-03-11T01:33:37;2.30;99.90
6146;DHT22;3104;50.348;7.620;2023-03-11T01:36:03;2.30;99.90
6146;DHT22;3104;50.348;7.620;2023-03-11T01:38:28;2.10;99.90
6146;DHT22;3104;50.348;7.620;2023-03-11T01:40:54;2.00;99.90
6146;DHT22;3104;50.348;7.620;2023-03-11T01:48:51;2.10;99.90
6146;DHT22;3104;50.348;7.620;2023-03-11T01:51:22;2.10;99.90
6146;DHT22;3104;50.348;7.620;2023-03-11T01:53:49;2.10;99.90
6146;DHT22;3104;50.348;7.620;2023-03-11T01:56:15;2.00;99.90
6146;DHT22;3104;50.348;7.620;2023-03-11T01:58:43;1.90;99.90
6146;DHT22;3104;50.348;7.620;2023-03-11T02:01:11;2.20;99.90
6146;DHT22;3104;50.348;7.620;2023-03-11T02:03:39;2.20;99.90
6146;DHT22;3104;50.348;7.620;2023-03-11T02:06:09;2.10;99.90
6146;DHT22;3104;50.348;7.620;2023-03-11T02:08:34;1.90;99.90
6146;DHT22;3104;50.348;7.620;2023-03-11T02:11:02;1.90;99.90
6146;DHT22;3104;50.348;7.620;2023-03-11T02:13:30;1.90;99.90
6146;DHT22;3104;50.348;7.620;2023-03-11T02:15:56;2.00;99.90
6146;DHT22;3104;50.348;7.620;2023-03-11T02:18:24;2.10;99.90
6146;DHT22;3104;50.348;7.620;2023-03-11T02:23:47;2.20;99.90
6146;DHT22;3104;50.348;7.620;2023-03-11T02:29:13;2.10;99.90
6146;DHT22;3104;50.348;7.620;2023-03-11T02:31:39;2.00;99.90
6146;DHT22;3104;50.348;7.620;2023-03-11T02:34:07;2.00;99.90
6146;DHT22;3104;50.348;7.620;2023-03-11T02:36:38;2.10;99.90
6146;DHT22;3104;50.348;7.620;2023-03-11T02:39:05;2.10;99.90
6146;DHT22;3104;50.348;7.620;2023-03-11T02:41:33;2.10;99.90
6146;DHT22;3104;50.348;7.620;2023-03-11T02:44:00;2.20;99.90
6146;DHT22;3104;50.348;7.620;2023-03-11T02:46:27;2.10;99.90
6146;DHT22;3104;50.348;7.620;2023-03-11T02:48:53;2.10;99.90
6146;DHT22;3104;50.348;7.620;2023-03-11T02:51:20;2.00;99.90
6146;DHT22;3104;50.348;7.620;2023-03-11T02:53:49;2.00;99.90
6146;DHT22;3104;50.348;7.620;2023-03-11T02:56:15;2.00;99.90
6146;DHT22;3104;50.348;7.620;2023-03-11T02:58:41;2.10;99.90
6146;DHT22;3104;50.348;7.620;2023-03-11T03:01:07;2.10;99.90
6146;DHT22;3104;50.348;7.620;2023-03-11T03:03:33;2.30;99.90
6146;DHT22;3104;50.348;7.620;2023-03-11T03:05:58;2.30;99.90
6146;DHT22;3104;50.348;7.620;2023-03-11T03:08:24;2.30;99.90
6146;DHT22;3104;50.348;7.620;2023-03-11T03:10:49;2.30;99.90
6146;DHT22;3104;50.348;7.620;2023-03-11T03:13:15;2.20;99.90
6146;DHT22;3104;50.348;7.620;2023-03-11T03:15:40;2.10;99.90
6146;DHT22;3104;50.348;7.620;2023-03-11T03:18:06;2.30;99.90
6146;DHT22;3104;50.348;7.620;2023-03-11T03:20:31;2.30;99.90
6146;DHT22;3104;50.348;7.620;2023-03-11T03:22:57;2.30;99.90
6146;DHT22;3104;50.348;7.620;2023-03-11T03:25:23;2.30;99.90
6146;DHT22;3104;50.348;7.620;2023-03-11T03:27:48;2.50;99.90
6146;DHT22;3104;50.348;7.620;2023-03-11T03:30:14;2.40;99.90
6146;DHT22;3104;50.348;7.620;2023-03-11T03:32:40;2.40;99.90
6146;DHT22;3104;50.348;7.620;2023-03-11T03:35:06;2.50;99.90
6146;DHT22;3104;50.348;7.620;2023-03-11T03:37:35;2.50;99.90
6146;DHT22;3104;50.348;7.620;2023-03-11T03:40:01;2.40;99.90
6146;DHT22;3104;50.348;7.620;2023-03-11T03:42:35;2.30;99.90
6146;DHT22;3104;50.348;7.620;2023-03-11T03:45:03;2.50;99.90
6146;DHT22;3104;50.348;7.620;2023-03-11T03:47:28;2.50;99.90
6146;DHT22;3104;50.348;7.620;2023-03-11T03:49:54;2.50;99.90
6146;DHT22;3104;50.348;7.620;2023-03-11T03:52:19;2.50;99.90
6146;DHT22;3104;50.348;7.620;2023-03-11T03:54:45;2.50;99.90
6146;DHT22;3104;50.348;7.620;2023-03-11T03:57:11;2.50;99.90
6146;DHT22;3104;50.348;7.620;2023-03-11T03:59:36;2.40;99.90
6146;DHT22;3104;50.348;7.620;2023-03-11T04:02:02;2.40;99.90
6146;DHT22;3104;50.348;7.620;2023-03-11T04:04:28;2.50;99.90
6146;DHT22;3104;50.348;7.620;2023-03-11T04:06:53;2.50;99.90
6146;DHT22;3104;50.348;7.620;2023-03-11T04:09:19;2.50;99.90
6146;DHT22;3104;50.348;7.620;2023-03-11T04:11:45;2.40;99.90
6146;DHT22;3104;50.348;7.620;2023-03-11T04:14:11;2.40;99.90
6146;DHT22;3104;50.348;7.620;2023-03-11T04:16:36;2.20;99.90
6146;DHT22;3104;50.348;7.620;2023-03-11T04:19:02;2.40;99.90
6146;DHT22;3104;50.348;7.620;2023-03-11T04:21:29;2.30;99.90
6146;DHT22;3104;50.348;7.620;2023-03-11T04:23:55;2.40;99.90
6146;DHT22;3104;50.348;7.620;2023-03-11T04:26:20;2.30;99.90
6146;DHT22;3104;50.348;7.620;2023-03-11T04:28:46;2.40;99.90
6146;DHT22;3104;50.348;7.620;2023-03-11T04:31:11;2.30;99.90
6146;DHT22;3104;50.348;7.620;2023-03-11T04:33:37;2.40;99.90
6146;DHT22;3104;50.348;7.620;2023-03-11T04:36:07;2.20;99.90
6146;DHT22;3104;50.348;7.620;2023-03-11T04:38:33;2.20;99.90
6146;DHT22;3104;50.348;7.620;2023-03-11T04:41:00;2.10;99.90
6146;DHT22;3104;50.348;7.620;2023-03-11T04:43:26;2.10;99.90
6146;DHT22;3104;50.348;7.620;2023-03-11T04:45:51;2.30;99.90
6146;DHT22;3104;50.348;7.620;2023-03-11T04:48:17;2.20;99.90
6146;DHT22;3104;50.348;7.620;2023-03-11T04:50:43;2.10;99.90
6146;DHT22;3104;50.348;7.620;2023-03-11T04:53:09;2.20;99.90
6146;DHT22;3104;50.348;7.620;2023-03-11T04:55:34;2.10;99.90
6146;DHT22;3104;50.348;7.620;2023-03-11T04:58:00;2.00;99.90
6146;DHT22;3104;50.348;7.620;2023-03-11T05:00:25;1.90;99.90
6146;DHT22;3104;50.348;7.620;2023-03-11T05:02:51;1.90;99.90
6146;DHT22;3104;50.348;7.620;2023-03-11T05:05:17;2.00;99.90
6146;DHT22;3104;50.348;7.620;2023-03-11T05:07:46;1.80;99.90
6146;DHT22;3104;50.348;7.620;2023-03-11T05:10:12;2.00;99.90
6146;DHT22;3104;50.348;7.620;2023-03-11T05:12:38;1.70;99.90
6146;DHT22;3104;50.348;7.620;2023-03-11T05:15:04;2.00;99.90
6146;DHT22;3104;50.348;7.620;2023-03-11T05:17:29;1.90;99.90
6146;DHT22;3104;50.348;7.620;2023-03-11T05:19:55;1.80;99.90
6146;DHT22;3104;50.348;7.620;2023-03-11T05:22:22;2.00;99.90
6146;DHT22;3104;50.348;7.620;2023-03-11T05:24:48;1.90;99.90
6146;DHT22;3104;50.348;7.620;2023-03-11T05:27:14;2.00;99.90
6146;DHT22;3104;50.348;7.620;2023-03-11T05:29:43;1.90;99.90
6146;DHT22;3104;50.348;7.620;2023-03-11T05:32:10;1.80;99.90
6146;DHT22;3104;50.348;7.620;2023-03-11T05:34:36;1.90;99.90
6146;DHT22;3104;50.348;7.620;2023-03-11T05:37:02;1.80;99.90
6146;DHT22;3104;50.348;7.620;2023-03-11T05:39:28;1.90;99.90
6146;DHT22;3104;50.348;7.620;2023-03-11T05:41:54;2.00;99.90
6146;DHT22;3104;50.348;7.620;2023-03-11T05:44:21;1.70;99.90
6146;DHT22;3104;50.348;7.620;2023-03-11T05:46:47;1.50;99.90
6146;DHT22;3104;50.348;7.620;2023-03-11T05:49:12;1.30;99.90
6146;DHT22;3104;50.348;7.620;2023-03-11T05:51:38;1.30;99.90
6146;DHT22;3104;50.348;7.620;2023-03-11T05:54:04;1.50;99.90
6146;DHT22;3104;50.348;7.620;2023-03-11T05:56:35;1.40;99.90
6146;DHT22;3104;50.348;7.620;2023-03-11T05:59:01;1.40;99.90
6146;DHT22;3104;50.348;7.620;2023-03-11T06:01:27;1.40;99.90
6146;DHT22;3104;50.348;7.620;2023-03-11T06:03:52;1.40;99.90
6146;DHT22;3104;50.348;7.620;2023-03-11T06:06:18;1.30;99.90
6146;DHT22;3104;50.348;7.620;2023-03-11T06:08:43;1.20;99.90
6146;DHT22;3104;50.348;7.620;2023-03-11T06:11:14;1.40;99.90
6146;DHT22;3104;50.348;7.620;2023-03-11T06:13:39;1.70;99.90
6146;DHT22;3104;50.348;7.620;2023-03-11T06:16:05;1.60;99.90
6146;DHT22;3104;50.348;7.620;2023-03-11T06:18:31;1.40;99.90
6146;DHT22;3104;50.348;7.620;2023-03-11T06:20:58;1.30;99.90
6146;DHT22;3104;50.348;7.620;2023-03-11T06:23:24;1.50;99.90
6146;DHT22;3104;50.348;7.620;2023-03-11T06:25:56;1.70;99.90
6146;DHT22;3104;50.348;7.620;2023-03-11T06:28:22;1.90;99.90
6146;DHT22;3104;50.348;7.620;2023-03-11T06:30:48;1.90;99.90
6146;DHT22;3104;50.348;7.620;2023-03-11T06:33:13;2.00;99.90
6146;DHT22;3104;50.348;7.620;2023-03-11T06:35:39;2.00;99.90
6146;DHT22;3104;50.348;7.620;2023-03-11T06:38:05;2.10;99.90
6146;DHT22;3104;50.348;7.620;2023-03-11T06:40:31;2.10;99.90
6146;DHT22;3104;50.348;7.620;2023-03-11T06:42:57;2.20;99.90
6146;DHT22;3104;50.348;7.620;2023-03-11T06:45:23;2.10;99.90
6146;DHT22;3104;50.348;7.620;2023-03-11T06:47:49;2.20;99.90
6146;DHT22;3104;50.348;7.620;2023-03-11T06:50:15;2.10;99.90
6146;DHT22;3104;50.348;7.620;2023-03-11T06:52:40;2.10;99.90
6146;DHT22;3104;50.348;7.620;2023-03-11T06:55:06;2.20;99.90
6146;DHT22;3104;50.348;7.620;2023-03-11T06:57:32;2.10;99.90
6146;DHT22;3104;50.348;7.620;2023-03-11T06:59:58;2.00;99.90
6146;DHT22;3104;50.348;7.620;2023-03-11T07:02:23;2.10;99.90
6146;DHT22;3104;50.348;7.620;2023-03-11T07:04:49;2.00;99.90
6146;DHT22;3104;50.348;7.620;2023-03-11T07:07:15;2.20;99.90
6146;DHT22;3104;50.348;7.620;2023-03-11T07:09:41;2.20;99.90
6146;DHT22;3104;50.348;7.620;2023-03-11T07:12:07;2.00;99.90
6146;DHT22;3104;50.348;7.620;2023-03-11T07:14:33;2.10;99.90
6146;DHT22;3104;50.348;7.620;2023-03-11T07:16:59;2.10;99.90
6146;DHT22;3104;50.348;7.620;2023-03-11T07:19:24;2.00;99.90
6146;DHT22;3104;50.348;7.620;2023-03-11T07:21:50;2.10;99.90
6146;DHT22;3104;50.348;7.620;2023-03-11T07:24:15;2.30;99.90
6146;DHT22;3104;50.348;7.620;2023-03-11T07:26:41;2.60;99.90
6146;DHT22;3104;50.348;7.620;2023-03-11T07:29:07;2.60;99.90
6146;DHT22;3104;50.348;7.620;2023-03-11T07:31:34;2.60;99.90
6146;DHT22;3104;50.348;7.620;2023-03-11T07:34:02;2.60;99.90
6146;DHT22;3104;50.348;7.620;2023-03-11T07:36:28;2.60;99.90
6146;DHT22;3104;50.348;7.620;2023-03-11T07:38:55;2.50;99.90
6146;DHT22;3104;50.348;7.620;2023-03-11T07:41:24;2.70;99.90
6146;DHT22;3104;50.348;7.620;2023-03-11T07:43:54;2.60;99.90
6146;DHT22;3104;50.348;7.620;2023-03-11T07:46:20;2.60;99.90
6146;DHT22;3104;50.348;7.620;2023-03-11T07:48:47;2.30;99.90
6146;DHT22;3104;50.348;7.620;2023-03-11T07:51:19;2.40;99.90
6146;DHT22;3104;50.348;7.620;2023-03-11T07:53:46;2.40;99.90
6146;DHT22;3104;50.348;7.620;2023-03-11T07:56:13;2.60;99.90
6146;DHT22;3104;50.348;7.620;2023-03-11T07:58:40;2.60;99.90
6146;DHT22;3104;50.348;7.620;2023-03-11T08:01:09;2.50;99.90
6146;DHT22;3104;50.348;7.620;2023-03-11T08:03:36;2.20;99.90
6146;DHT22;3104;50.348;7.620;2023-03-11T08:06:02;2.10;99.90
6146;DHT22;3104;50.348;7.620;2023-03-11T08:08:29;2.20;99.90
6146;DHT22;3104;50.348;7.620;2023-03-11T08:10:55;2.40;99.90
6146;DHT22;3104;50.348;7.620;2023-03-11T08:13:20;2.60;99.90
6146;DHT22;3104;50.348;7.620;2023-03-11T08:15:46;2.60;99.90
6146;DHT22;3104;50.348;7.620;2023-03-11T08:18:11;2.70;99.90
6146;DHT22;3104;50.348;7.620;2023-03-11T08:20:38;3.00;99.90
6146;DHT22;3104;50.348;7.620;2023-03-11T08:23:04;3.00;99.90
6146;DHT22;3104;50.348;7.620;2023-03-11T08:25:30;3.00;99.90
6146;DHT22;3104;50.348;7.620;2023-03-11T08:27:56;2.80;99.90
6146;DHT22;3104;50.348;7.620;2023-03-11T08:30:22;3.10;99.90
6146;DHT22;3104;50.348;7.620;2023-03-11T08:32:47;3.20;99.90
6146;DHT22;3104;50.348;7.620;2023-03-11T08:35:13;3.30;99.90
6146;DHT22;3104;50.348;7.620;2023-03-11T08:37:39;3.50;99.90
6146;DHT22;3104;50.348;7.620;2023-03-11T08:40:05;3.80;99.90
6146;DHT22;3104;50.348;7.620;2023-03-11T08:42:32;3.40;99.90
6146;DHT22;3104;50.348;7.620;2023-03-11T08:44:57;2.90;99.90
6146;DHT22;3104;50.348;7.620;2023-03-11T08:47:23;2.80;99.90
6146;DHT22;3104;50.348;7.620;2023-03-11T08:49:48;2.90;99.90
6146;DHT22;3104;50.348;7.620;2023-03-11T08:52:14;3.00;99.90
6146;DHT22;3104;50.348;7.620;2023-03-11T08:54:39;2.80;99.90
6146;DHT22;3104;50.348;7.620;2023-03-11T08:57:05;2.70;99.90
6146;DHT22;3104;50.348;7.620;2023-03-11T08:59:30;2.90;99.90
6146;DHT22;3104;50.348;7.620;2023-03-11T09:01:56;3.30;99.90
6146;DHT22;3104;50.348;7.620;2023-03-11T09:04:22;3.30;99.90
6146;DHT22;3104;50.348;7.620;2023-03-11T09:06:47;2.80;99.90
6146;DHT22;3104;50.348;7.620;2023-03-11T09:09:13;2.70;99.90
6146;DHT22;3104;50.348;7.620;2023-03-11T09:11:40;2.90;99.90
6146;DHT22;3104;50.348;7.620;2023-03-11T09:14:06;3.00;99.90
6146;DHT22;3104;50.348;7.620;2023-03-11T09:16:32;3.00;99.90
6146;DHT22;3104;50.348;7.620;2023-03-11T09:18:57;3.10;99.90
6146;DHT22;3104;50.348;7.620;2023-03-11T09:21:27;3.60;99.90
6146;DHT22;3104;50.348;7.620;2023-03-11T09:23:53;4.20;98.20
6146;DHT22;3104;50.348;7.620;2023-03-11T09:26:19;4.10;99.90
6146;DHT22;3104;50.348;7.620;2023-03-11T09:28:44;5.10;94.80
6146;DHT22;3104;50.348;7.620;2023-03-11T09:31:14;5.20;69.60
6146;DHT22;3104;50.348;7.620;2023-03-11T09:33:41;5.50;59.50
6146;DHT22;3104;50.348;7.620;2023-03-11T09:36:09;5.50;44.50
6146;DHT22;3104;50.348;7.620;2023-03-11T09:38:36;5.90;44.20
6146;DHT22;3104;50.348;7.620;2023-03-11T09:41:07;6.60;40.70
6146;DHT22;3104;50.348;7.620;2023-03-11T09:49:42;4.50;57.70
6146;DHT22;3104;50.348;7.620;2023-03-11T09:52:15;4.60;51.20
6146;DHT22;3104;50.348;7.620;2023-03-11T09:54:51;4.60;65.10
6146;DHT22;3104;50.348;7.620;2023-03-11T09:57:31;4.20;39.80
6146;DHT22;3104;50.348;7.620;2023-03-11T10:00:01;4.10;43.30
6146;DHT22;3104;50.348;7.620;2023-03-11T10:02:29;4.00;37.90
6146;DHT22;3104;50.348;7.620;2023-03-11T10:05:07;3.70;47.40
6146;DHT22;3104;50.348;7.620;2023-03-11T10:07:39;3.50;55.20
6146;DHT22;3104;50.348;7.620;2023-03-11T10:10:09;3.50;54.20
6146;DHT22;3104;50.348;7.620;2023-03-11T10:13:37;3.80;58.50
6146;DHT22;3104;50.348;7.620;2023-03-11T10:16:14;3.90;57.80
6146;DHT22;3104;50.348;7.620;2023-03-11T10:19:03;4.10;56.00
6146;DHT22;3104;50.348;7.620;2023-03-11T10:27:08;3.40;73.40
6146;DHT22;3104;50.348;7.620;2023-03-11T10:30:05;3.30;74.10
6146;DHT22;3104;50.348;7.620;2023-03-11T10:32:39;3.70;81.90
6146;DHT22;3104;50.348;7.620;2023-03-11T10:35:20;4.10;67.90
6146;DHT22;3104;50.348;7.620;2023-03-11T10:37:55;5.20;49.40
6146;DHT22;3104;50.348;7.620;2023-03-11T10:40:34;5.80;43.10
6146;DHT22;3104;50.348;7.620;2023-03-11T10:43:03;5.40;37.30
6146;DHT22;3104;50.348;7.620;2023-03-11T10:45:36;4.60;41.40
6146;DHT22;3104;50.348;7.620;2023-03-11T10:48:09;4.40;42.50
6146;DHT22;3104;50.348;7.620;2023-03-11T10:51:19;4.40;48.60
6146;DHT22;3104;50.348;7.620;2023-03-11T10:53:48;4.70;36.80
6146;DHT22;3104;50.348;7.620;2023-03-11T10:56:38;4.60;44.20
6146;DHT22;3104;50.348;7.620;2023-03-11T10:59:29;4.60;36.50
6146;DHT22;3104;50.348;7.620;2023-03-11T11:02:01;4.70;38.30
6146;DHT22;3104;50.348;7.620;2023-03-11T11:04:35;4.80;37.40
6146;DHT22;3104;50.348;7.620;2023-03-11T11:07:26;5.70;28.80
6146;DHT22;3104;50.348;7.620;2023-03-11T11:10:21;6.40;25.00
6146;DHT22;3104;50.348;7.620;2023-03-11T11:15:25;7.80;18.60
6146;DHT22;3104;50.348;7.620;2023-03-11T11:17:52;6.90;14.50
6146;DHT22;3104;50.348;7.620;2023-03-11T11:20:21;7.70;14.10
6146;DHT22;3104;50.348;7.620;2023-03-11T11:22:58;8.00;6.70
6146;DHT22;3104;50.348;7.620;2023-03-11T11:25:33;7.70;8.80
6146;DHT22;3104;50.348;7.620;2023-03-11T11:28:21;7.80;5.10
6146;DHT22;3104;50.348;7.620;2023-03-11T11:30:58;7.50;6.40
6146;DHT22;3104;50.348;7.620;2023-03-11T11:33:48;8.50;7.80
6146;DHT22;3104;50.348;7.620;2023-03-11T11:36:15;7.20;4.40
6146;DHT22;3104;50.348;7.620;2023-03-11T11:38:42;7.30;10.10
6146;DHT22;3104;50.348;7.620;2023-03-11T11:41:14;7.20;9.00
6146;DHT22;3104;50.348;7.620;2023-03-11T11:46:31;7.70;6.80
6146;DHT22;3104;50.348;7.620;2023-03-11T11:51:38;8.30;5.40
6146;DHT22;3104;50.348;7.620;2023-03-11T11:56:31;9.30;2.90
6146;DHT22;3104;50.348;7.620;2023-03-11T11:58:57;9.70;1.00
6146;DHT22;3104;50.348;7.620;2023-03-11T12:01:41;9.60;1.00
6146;DHT22;3104;50.348;7.620;2023-03-11T12:13:03;7.70;4.50
6146;DHT22;3104;50.348;7.620;2023-03-11T12:15:34;8.80;2.40
6146;DHT22;3104;50.348;7.620;2023-03-11T12:18:05;9.20;3.80
6146;DHT22;3104;50.348;7.620;2023-03-11T12:20:45;8.10;1.10
6146;DHT22;3104;50.348;7.620;2023-03-11T12:31:10;7.10;6.10
6146;DHT22;3104;50.348;7.620;2023-03-11T12:33:42;7.10;10.20
6146;DHT22;3104;50.348;7.620;2023-03-11T12:36:24;7.20;11.90
6146;DHT22;3104;50.348;7.620;2023-03-11T12:38:54;6.40;10.30
6146;DHT22;3104;50.348;7.620;2023-03-11T12:41:37;6.70;12.80
6146;DHT22;3104;50.348;7.620;2023-03-11T12:44:25;7.10;12.20
6146;DHT22;3104;50.348;7.620;2023-03-11T12:49:23;6.80;7.70
6146;DHT22;3104;50.348;7.620;2023-03-11T12:54:41;7.20;7.60
6146;DHT22;3104;50.348;7.620;2023-03-11T13:08:16;8.20;4.60
6146;DHT22;3104;50.348;7.620;2023-03-11T13:10:46;8.10;4.30
6146;DHT22;3104;50.348;7.620;2023-03-11T13:15:52;6.90;5.90
6146;DHT22;3104;50.348;7.620;2023-03-11T13:18:26;7.10;6.10
6146;DHT22;3104;50.348;7.620;2023-03-11T13:21:03;7.50;8.40
6146;DHT22;3104;50.348;7.620;2023-03-11T13:23:34;7.70;7.40
6146;DHT22;3104;50.348;7.620;2023-03-11T13:26:27;8.00;6.30
6146;DHT22;3104;50.348;7.620;2023-03-11T13:32:39;7.30;5.70
6146;DHT22;3104;50.348;7.620;2023-03-11T13:34:45;7.60;6.00
6146;DHT22;3104;50.348;7.620;2023-03-11T13:42:50;7.40;4.40
6146;DHT22;3104;50.348;7.620;2023-03-11T13:47:52;6.80;6.60
6146;DHT22;3104;50.348;7.620;2023-03-11T13:50:25;7.00;8.30
6146;DHT22;3104;50.348;7.620;2023-03-11T13:52:53;7.10;7.40
6146;DHT22;3104;50.348;7.620;2023-03-11T13:57:54;6.70;7.90
6146;DHT22;3104;50.348;7.620;2023-03-11T14:00:22;6.20;9.50
6146;DHT22;3104;50.348;7.620;2023-03-11T14:02:51;6.20;11.50
6146;DHT22;3104;50.348;7.620;2023-03-11T14:05:25;6.30;10.00
6146;DHT22;3104;50.348;7.620;2023-03-11T14:07:51;6.40;8.60
6146;DHT22;3104;50.348;7.620;2023-03-11T14:10:20;7.10;9.10
6146;DHT22;3104;50.348;7.620;2023-03-11T14:12:46;6.70;10.70
6146;DHT22;3104;50.348;7.620;2023-03-11T14:15:19;6.40;9.80
6146;DHT22;3104;50.348;7.620;2023-03-11T14:17:45;7.00;12.30
6146;DHT22;3104;50.348;7.620;2023-03-11T14:20:19;7.30;11.60
6146;DHT22;3104;50.348;7.620;2023-03-11T14:22:53;7.30;6.60
6146;DHT22;3104;50.348;7.620;2023-03-11T14:25:26;7.40;10.20
6146;DHT22;3104;50.348;7.620;2023-03-11T14:27:59;7.60;8.80
6146;DHT22;3104;50.348;7.620;2023-03-11T14:30:28;7.30;7.20
6146;DHT22;3104;50.348;7.620;2023-03-11T14:33:05;7.30;8.00
6146;DHT22;3104;50.348;7.620;2023-03-11T14:35:32;6.90;6.70
6146;DHT22;3104;50.348;7.620;2023-03-11T14:40:40;7.90;6.30
6146;DHT22;3104;50.348;7.620;2023-03-11T14:43:07;8.20;6.00
6146;DHT22;3104;50.348;7.620;2023-03-11T14:45:37;8.60;6.60
6146;DHT22;3104;50.348;7.620;2023-03-11T14:48:32;8.40;2.80
6146;DHT22;3104;50.348;7.620;2023-03-11T14:51:03;8.50;5.70
6146;DHT22;3104;50.348;7.620;2023-03-11T14:53:47;8.10;5.40
6146;DHT22;3104;50.348;7.620;2023-03-11T14:56:18;8.50;3.10
6146;DHT22;3104;50.348;7.620;2023-03-11T14:58:55;8.80;4.90
6146;DHT22;3104;50.348;7.620;2023-03-11T15:01:27;9.20;2.90
6146;DHT22;3104;50.348;7.620;2023-03-11T15:06:30;8.70;1.00
6146;DHT22;3104;50.348;7.620;2023-03-11T15:09:00;7.90;1.00
6146;DHT22;3104;50.348;7.620;2023-03-11T15:11:27;7.60;2.80
6146;DHT22;3104;50.348;7.620;2023-03-11T15:14:07;7.80;1.00
6146;DHT22;3104;50.348;7.620;2023-03-11T15:16:36;7.90;2.80
6146;DHT22;3104;50.348;7.620;2023-03-11T15:21:48;8.20;1.60
6146;DHT22;3104;50.348;7.620;2023-03-11T15:24:23;8.10;2.40
6146;DHT22;3104;50.348;7.620;2023-03-11T15:27:28;8.10;1.00
6146;DHT22;3104;50.348;7.620;2023-03-11T15:29:54;7.20;1.00
6146;DHT22;3104;50.348;7.620;2023-03-11T15:32:41;7.10;1.20
6146;DHT22;3104;50.348;7.620;2023-03-11T15:37:36;7.60;4.60
6146;DHT22;3104;50.348;7.620;2023-03-11T15:40:24;7.30;1.80
6146;DHT22;3104;50.348;7.620;2023-03-11T15:45:39;7.00;6.00
6146;DHT22;3104;50.348;7.620;2023-03-11T15:48:05;7.10;5.50
6146;DHT22;3104;50.348;7.620;2023-03-11T15:50:31;7.20;5.60
6146;DHT22;3104;50.348;7.620;2023-03-11T15:52:57;7.50;7.00
6146;DHT22;3104;50.348;7.620;2023-03-11T15:55:25;8.10;5.60
6146;DHT22;3104;50.348;7.620;2023-03-11T15:57:59;8.30;3.40
6146;DHT22;3104;50.348;7.620;2023-03-11T16:00:26;8.60;2.90
6146;DHT22;3104;50.348;7.620;2023-03-11T16:02:55;8.70;4.20
6146;DHT22;3104;50.348;7.620;2023-03-11T16:05:22;7.80;2.50
6146;DHT22;3104;50.348;7.620;2023-03-11T16:07:48;7.20;3.60
6146;DHT22;3104;50.348;7.620;2023-03-11T16:10:17;6.80;5.10
6146;DHT22;3104;50.348;7.620;2023-03-11T16:12:43;7.10;4.90
6146;DHT22;3104;50.348;7.620;2023-03-11T16:15:26;7.20;5.50
6146;DHT22;3104;50.348;7.620;2023-03-11T16:17:55;7.30;3.90
6146;DHT22;3104;50.348;7.620;2023-03-11T16:20:22;7.10;4.90
6146;DHT22;3104;50.348;7.620;2023-03-11T16:22:50;7.00;4.50
6146;DHT22;3104;50.348;7.620;2023-03-11T16:25:25;7.00;5.00
6146;DHT22;3104;50.348;7.620;2023-03-11T16:27:53;7.00;5.10
6146;DHT22;3104;50.348;7.620;2023-03-11T16:30:19;7.50;6.40
6146;DHT22;3104;50.348;7.620;2023-03-11T16:32:44;7.90;4.20
6146;DHT22;3104;50.348;7.620;2023-03-11T16:35:10;7.70;4.30
6146;DHT22;3104;50.348;7.620;2023-03-11T16:37:37;7.60;5.40
6146;DHT22;3104;50.348;7.620;2023-03-11T16:40:03;7.70;4.40
6146;DHT22;3104;50.348;7.620;2023-03-11T16:42:30;8.10;3.00
6146;DHT22;3104;50.348;7.620;2023-03-11T16:44:56;7.70;3.30
6146;DHT22;3104;50.348;7.620;2023-03-11T16:47:21;7.80;3.40
6146;DHT22;3104;50.348;7.620;2023-03-11T16:49:47;8.30;4.00
6146;DHT22;3104;50.348;7.620;2023-03-11T16:52:20;8.50;2.10
6146;DHT22;3104;50.348;7.620;2023-03-11T16:54:47;8.30;3.00
6146;DHT22;3104;50.348;7.620;2023-03-11T16:57:13;8.00;2.30
6146;DHT22;3104;50.348;7.620;2023-03-11T16:59:39;8.10;2.50
6146;DHT22;3104;50.348;7.620;2023-03-11T17:02:05;7.80;1.90
6146;DHT22;3104;50.348;7.620;2023-03-11T17:04:30;7.60;4.80
6146;DHT22;3104;50.348;7.620;2023-03-11T17:06:56;7.50;5.80
6146;DHT22;3104;50.348;7.620;2023-03-11T17:09:21;7.00;3.70
6146;DHT22;3104;50.348;7.620;2023-03-11T17:11:49;6.80;7.90
6146;DHT22;3104;50.348;7.620;2023-03-11T17:14:15;6.90;8.30
6146;DHT22;3104;50.348;7.620;2023-03-11T17:16:41;6.80;8.20
6146;DHT22;3104;50.348;7.620;2023-03-11T17:19:07;6.90;9.00
6146;DHT22;3104;50.348;7.620;2023-03-11T17:21:32;7.00;8.80
6146;DHT22;3104;50.348;7.620;2023-03-11T17:23:58;6.80;8.30
6146;DHT22;3104;50.348;7.620;2023-03-11T17:26:24;6.70;9.30
6146;DHT22;3104;50.348;7.620;2023-03-11T17:28:55;6.40;11.50
6146;DHT22;3104;50.348;7.620;2023-03-11T17:31:21;6.20;11.20
6146;DHT22;3104;50.348;7.620;2023-03-11T17:33:46;5.90;11.70
6146;DHT22;3104;50.348;7.620;2023-03-11T17:36:14;5.70;13.60
6146;DHT22;3104;50.348;7.620;2023-03-11T17:38:41;5.80;16.00
6146;DHT22;3104;50.348;7.620;2023-03-11T17:41:08;6.00;19.10
6146;DHT22;3104;50.348;7.620;2023-03-11T17:43:33;6.20;22.40
6146;DHT22;3104;50.348;7.620;2023-03-11T17:45:59;6.90;18.40
6146;DHT22;3104;50.348;7.620;2023-03-11T17:48:24;6.90;17.50
6146;DHT22;3104;50.348;7.620;2023-03-11T17:50:52;6.60;17.00
6146;DHT22;3104;50.348;7.620;2023-03-11T17:53:18;6.40;17.30
6146;DHT22;3104;50.348;7.620;2023-03-11T17:55:43;6.20;17.30
6146;DHT22;3104;50.348;7.620;2023-03-11T17:58:09;6.30;17.90
6146;DHT22;3104;50.348;7.620;2023-03-11T18:00:34;6.30;20.80
6146;DHT22;3104;50.348;7.620;2023-03-11T18:03:00;6.30;21.30
6146;DHT22;3104;50.348;7.620;2023-03-11T18:05:26;6.00;22.70
6146;DHT22;3104;50.348;7.620;2023-03-11T18:07:51;6.00;22.30